Time;durP1;ratioP1;P1;durP2;ratioP2;P2;SDS_P1;SDS_P2;PMS_P1;PMS_P2;Temp;Humidity;BMP_temperature;BMP_pressure;BME280_temperature;BME280_humidity;BME280_pressure;Samples;Min_cycle;Max_cycle;Signal;HPM_P1;HPM_P2
2023/05/02 00:00:13;;;;;;;;;7.00;6.67;;;;;15.24;60.13;101724.91;5056145;28;45456;-76
2023/05/02 00:02:38;;;;;;;;;9.00;7.33;;;;;15.10;60.61;101719.63;5054982;28;45433;-75
2023/05/02 00:05:05;;;;;;;;;8.00;6.67;;;;;15.20;60.82;101747.75;5068522;28;45479;-75
2023/05/02 00:07:32;;;;;;;;;11.33;9.67;;;;;15.03;61.09;101726.66;5049750;28;45999;-75
2023/05/02 00:09:58;;;;;;;;;8.67;8.67;;;;;14.98;61.44;101732.84;5061921;28;46011;-76
2023/05/02 00:12:33;;;;;;;;;9.33;8.00;;;;;15.14;60.88;101741.59;5077522;28;45342;-76
2023/05/02 00:15:10;;;;;;;;;9.00;9.00;;;;;15.07;60.98;101727.56;5077400;28;45401;-76
2023/05/02 00:17:40;;;;;;;;;3.67;2.67;;;;;15.18;60.61;101738.94;5076494;28;45488;-73
2023/05/02 00:20:08;;;;;;;;;8.67;6.67;;;;;14.56;60.59;101622.06;5079689;28;45433;-75
2023/05/02 00:22:34;;;;;;;;;7.00;7.00;;;;;15.10;60.77;101719.63;5059278;28;45256;-74
2023/05/02 00:25:00;;;;;;;;;5.33;5.00;;;;;15.22;60.50;101740.72;5075037;28;46587;-75
2023/05/02 00:27:25;;;;;;;;;7.67;6.33;;;;;15.17;60.63;101726.66;5073863;28;45461;-74
2023/05/02 00:29:52;;;;;;;;;10.33;7.00;;;;;15.21;60.59;101732.78;5073674;28;45400;-75
2023/05/02 00:32:18;;;;;;;;;9.00;7.00;;;;;15.11;60.79;101716.09;5070603;28;45518;-75
2023/05/02 00:34:44;;;;;;;;;9.00;7.33;;;;;15.21;60.97;101738.06;5071498;28;45506;-75
2023/05/02 00:37:09;;;;;;;;;7.67;7.67;;;;;15.11;60.94;101723.13;5079522;28;45362;-74
2023/05/02 00:39:35;;;;;;;;;6.00;5.67;;;;;14.95;61.80;101716.97;5075845;28;45400;-74
2023/05/02 00:42:01;;;;;;;;;10.00;8.00;;;;;14.99;61.70;101726.66;5056057;28;45616;-75
2023/05/02 00:44:27;;;;;;;;;11.00;7.33;;;;;15.04;60.97;101735.44;5056141;28;47132;-74
2023/05/02 00:46:54;;;;;;;;;9.00;7.00;;;;;15.05;60.78;101726.66;5070038;28;45382;-75
2023/05/02 00:49:20;;;;;;;;;7.33;7.00;;;;;15.09;61.15;101731.06;5056862;28;45461;-74
2023/05/02 00:51:45;;;;;;;;;9.33;6.33;;;;;14.98;61.18;101706.44;5079393;28;45429;-73
2023/05/02 00:54:14;;;;;;;;;8.33;7.67;;;;;15.13;60.99;101735.44;5076602;27;45743;-74
2023/05/02 00:56:40;;;;;;;;;12.00;7.33;;;;;15.05;60.90;101724.03;5054104;28;45420;-75
2023/05/02 00:59:07;;;;;;;;;9.67;8.00;;;;;14.97;61.00;101708.22;5068134;28;45544;-75
2023/05/02 01:01:54;;;;;;;;;11.33;8.00;;;;;15.14;60.80;101742.50;5075886;28;46320;-74
2023/05/02 01:04:38;;;;;;;;;12.00;8.33;;;;;15.15;61.22;101743.38;5070230;28;45608;-75
2023/05/02 01:07:42;;;;;;;;;8.67;8.00;;;;;15.10;61.55;101746.00;5053804;28;45883;-74
2023/05/02 01:10:26;;;;;;;;;7.67;7.67;;;;;14.96;61.73;101740.72;5053475;28;45564;-76
2023/05/02 01:13:29;;;;;;;;;14.00;8.33;;;;;14.71;62.32;101713.50;5059383;28;45707;-76
2023/05/02 01:15:58;;;;;;;;;11.00;11.00;;;;;14.76;62.64;101729.28;5047178;28;47793;-74
2023/05/02 01:18:26;;;;;;;;;12.00;10.33;;;;;14.60;62.25;101712.59;5074261;28;45416;-76
2023/05/02 01:20:59;;;;;;;;;12.67;9.33;;;;;14.72;62.87;101733.69;5074808;28;45528;-75
2023/05/02 01:23:25;;;;;;;;;10.00;8.00;;;;;14.75;62.65;101744.25;5075229;28;45367;-74
2023/05/02 01:26:09;;;;;;;;;12.33;8.00;;;;;14.68;62.88;101733.69;5052791;28;45892;-73
2023/05/02 01:29:07;;;;;;;;;9.67;8.67;;;;;14.67;62.71;101743.38;5074307;28;45489;-75
2023/05/02 01:31:40;;;;;;;;;12.00;8.67;;;;;14.67;62.98;101742.50;5074927;28;45397;-75
2023/05/02 01:34:09;;;;;;;;;9.33;8.00;;;;;14.64;63.47;101748.66;5074830;28;45584;-71
2023/05/02 01:36:41;;;;;;;;;15.33;11.33;;;;;14.53;63.65;101727.50;5078427;28;45717;-76
2023/05/02 01:39:10;;;;;;;;;12.33;8.00;;;;;14.48;63.77;101734.53;5058139;28;45545;-76
2023/05/02 01:41:38;;;;;;;;;10.00;9.00;;;;;14.34;64.02;101726.56;5053527;28;45517;-73
2023/05/02 01:44:06;;;;;;;;;11.00;8.67;;;;;14.43;63.77;101739.78;5039456;28;45406;-75
2023/05/02 01:46:37;;;;;;;;;13.33;10.00;;;;;14.47;63.63;101745.91;5062644;28;46968;-75
2023/05/02 01:49:06;;;;;;;;;14.00;10.67;;;;;14.43;63.50;101742.41;5073757;28;45458;-73
2023/05/02 01:51:35;;;;;;;;;10.67;9.67;;;;;14.46;63.84;101752.09;5077043;28;45584;-76
2023/05/02 01:54:07;;;;;;;;;11.67;9.00;;;;;14.34;64.34;101742.38;5059635;28;45434;-72
2023/05/02 01:56:35;;;;;;;;;17.00;13.67;;;;;14.25;64.35;101737.09;5079500;28;45547;-73
2023/05/02 01:59:07;;;;;;;;;12.00;11.33;;;;;14.34;63.79;101746.78;5079256;28;45434;-76
2023/05/02 02:01:35;;;;;;;;;14.67;12.00;;;;;14.29;63.93;101738.88;5054851;28;45351;-77
2023/05/02 02:04:03;;;;;;;;;11.67;9.67;;;;;14.36;63.90;101745.91;5071342;28;45650;-75
2023/05/02 02:06:29;;;;;;;;;16.75;13.25;;;;;14.26;64.44;101740.59;5073224;28;45497;-76
2023/05/02 02:08:54;;;;;;;;;12.67;12.67;;;;;14.23;64.66;101743.22;5054826;28;45454;-71
2023/05/02 02:11:36;;;;;;;;;12.33;11.00;;;;;14.19;64.16;101731.81;5073743;28;45353;-74
2023/05/02 02:14:19;;;;;;;;;16.25;14.50;;;;;14.19;64.65;101737.97;5052719;28;46258;-75
2023/05/02 02:16:45;;;;;;;;;15.50;11.50;;;;;14.27;64.24;101743.25;5064340;28;45489;-76
2023/05/02 02:19:14;;;;;;;;;8.00;8.00;;;;;14.23;64.50;101732.69;5059182;28;45545;-76
2023/05/02 02:21:42;;;;;;;;;16.33;11.67;;;;;14.33;64.03;101739.75;5073935;28;45666;-75
2023/05/02 02:24:09;;;;;;;;;10.00;9.67;;;;;14.27;64.02;101726.56;5052631;28;45758;-75
2023/05/02 02:26:51;;;;;;;;;12.00;11.00;;;;;14.43;63.36;101752.97;5056123;28;47063;-75
2023/05/02 02:29:29;;;;;;;;;;;;;;;;;;;;;
2023/05/02 02:31:55;;;;;;;;;8.00;6.33;;;;;14.51;63.98;101760.00;5059063;28;67599;-75
2023/05/02 02:34:21;;;;;;;;;10.67;9.00;;;;;14.46;63.65;101746.81;5076385;28;45591;-75
2023/05/02 02:37:10;;;;;;;;;14.67;14.67;;;;;14.34;64.55;101758.19;5077724;28;45478;-75
2023/05/02 02:39:47;;;;;;;;;11.33;10.00;;;;;14.29;64.39;101759.94;5077751;28;45450;-74
2023/05/02 02:42:28;;;;;;;;;14.67;13.00;;;;;14.28;64.10;101752.91;5056031;28;45470;-74
2023/05/02 02:45:05;;;;;;;;;18.75;11.75;;;;;14.17;64.29;101730.94;5074231;28;45273;-76
2023/05/02 02:47:49;;;;;;;;;11.00;9.33;;;;;14.38;63.65;101765.25;5077308;28;45346;-75
2023/05/02 02:50:53;;;;;;;;;15.00;10.33;;;;;14.36;64.05;101774.91;5059391;28;45323;-74
2023/05/02 02:53:26;;;;;;;;;13.00;12.33;;;;;14.32;64.49;101774.88;4993605;28;45942;-75
2023/05/02 02:56:12;;;;;;;;;14.00;11.67;;;;;14.25;64.78;101766.06;5010478;28;45557;-73
2023/05/02 02:59:03;;;;;;;;;13.67;11.33;;;;;14.22;64.73;101763.44;5041295;28;45983;-74
2023/05/02 03:01:31;;;;;;;;;15.75;11.25;;;;;14.10;64.79;101744.97;5073411;28;45418;-76
2023/05/02 03:03:57;;;;;;;;;13.00;11.25;;;;;14.25;64.32;101768.72;5072170;28;45736;-75
2023/05/02 03:06:23;;;;;;;;;15.67;11.67;;;;;14.30;64.53;101758.19;5073143;28;45441;-75
2023/05/02 03:08:49;;;;;;;;;13.67;11.00;;;;;14.26;64.27;101749.41;5072963;28;45743;-75
2023/05/02 03:11:15;;;;;;;;;15.00;10.00;;;;;14.28;64.00;101754.66;5072441;28;45554;-75
2023/05/02 03:13:40;;;;;;;;;12.00;12.00;;;;;14.29;64.05;101749.41;5052185;28;45435;-76
2023/05/02 03:16:35;;;;;;;;;11.67;10.67;;;;;14.39;63.93;101758.22;5074795;28;45217;-76
2023/05/02 03:19:01;;;;;;;;;8.33;8.00;;;;;14.36;63.68;101756.44;5058716;28;45488;-75
2023/05/02 03:21:26;;;;;;;;;14.00;12.00;;;;;14.37;63.61;101757.31;5073856;28;45363;-75
2023/05/02 03:23:52;;;;;;;;;12.00;11.00;;;;;14.36;63.75;101766.13;5054927;28;45572;-75
2023/05/02 03:26:17;;;;;;;;;15.67;12.00;;;;;14.42;63.88;101764.34;5077542;28;45376;-74
2023/05/02 03:28:46;;;;;;;;;14.33;9.00;;;;;14.39;64.04;101767.00;5067810;28;45660;-76
2023/05/02 03:31:13;;;;;;;;;13.00;13.00;;;;;14.38;63.95;101759.09;5068168;28;45500;-75
2023/05/02 03:33:38;;;;;;;;;18.00;14.67;;;;;14.34;63.71;101758.19;5073515;28;45350;-75
2023/05/02 03:36:04;;;;;;;;;15.50;12.75;;;;;14.28;64.10;101755.53;5054985;28;45545;-75
2023/05/02 03:38:30;;;;;;;;;20.50;12.25;;;;;14.01;65.20;101766.88;5050985;28;47024;-74
2023/05/02 03:40:57;;;;;;;;;19.75;13.75;;;;;13.86;64.81;101743.97;5064298;28;45508;-76
2023/05/02 03:43:22;;;;;;;;;17.25;15.25;;;;;14.16;64.06;101784.47;5071932;28;45399;-73
2023/05/02 03:45:48;;;;;;;;;20.75;14.25;;;;;14.20;64.65;101788.91;5072932;28;45786;-71
2023/05/02 03:48:13;;;;;;;;;15.00;12.75;;;;;14.19;64.08;101773.97;5072091;28;45481;-73
2023/05/02 03:50:39;;;;;;;;;15.33;12.00;;;;;14.18;64.17;101773.06;5054216;28;45454;-72
2023/05/02 03:53:04;;;;;;;;;10.67;10.67;;;;;14.26;64.26;101780.13;5083216;27;45453;-70
2023/05/02 03:55:31;;;;;;;;;11.67;11.67;;;;;14.28;64.47;101779.25;5073470;27;46009;-72
2023/05/02 03:57:57;;;;;;;;;14.33;10.67;;;;;14.30;64.44;101785.41;5051413;28;47953;-73
2023/05/02 04:00:22;;;;;;;;;12.33;7.67;;;;;14.30;64.04;101780.16;5074394;28;45617;-72
2023/05/02 04:02:48;;;;;;;;;15.67;13.00;;;;;14.20;64.02;101752.88;5075954;28;45295;-72
2023/05/02 04:05:13;;;;;;;;;16.25;13.00;;;;;14.33;64.48;101774.91;5057955;28;45386;-73
2023/05/02 04:07:39;;;;;;;;;16.25;13.75;;;;;14.36;63.86;101776.66;5075895;28;45612;-73
2023/05/02 04:10:06;;;;;;;;;18.33;14.00;;;;;14.29;64.21;101770.50;5072707;28;45351;-76
2023/05/02 04:12:31;;;;;;;;;18.75;13.50;;;;;14.34;63.61;101775.78;5076651;28;45409;-75
2023/05/02 04:14:57;;;;;;;;;14.33;13.00;;;;;14.27;63.93;101760.81;5056087;28;45450;-74
2023/05/02 04:17:23;;;;;;;;;15.00;13.33;;;;;14.28;64.17;101766.06;5069588;28;45520;-73
2023/05/02 04:19:48;;;;;;;;;18.00;12.75;;;;;14.34;64.04;101773.13;5065262;28;45809;-72
2023/05/02 04:22:14;;;;;;;;;14.25;13.00;;;;;14.34;63.74;101784.56;5076310;28;45390;-72
2023/05/02 04:24:39;;;;;;;;;21.00;16.25;;;;;14.30;64.14;101774.88;5057780;28;45844;-74
2023/05/02 04:27:05;;;;;;;;;13.25;10.25;;;;;14.36;63.98;101798.63;5075836;28;45584;-72
2023/05/02 04:29:30;;;;;;;;;18.50;14.00;;;;;14.32;64.02;101788.94;5074776;28;45840;-72
2023/05/02 04:31:56;;;;;;;;;16.25;12.50;;;;;14.32;64.04;101796.84;5071524;28;45513;-73
2023/05/02 04:34:21;;;;;;;;;16.75;12.00;;;;;14.32;64.02;101795.97;5070144;28;45496;-73
2023/05/02 04:36:47;;;;;;;;;18.33;14.00;;;;;14.21;63.87;101790.66;5079277;28;45454;-70
2023/05/02 04:39:13;;;;;;;;;18.00;16.00;;;;;14.29;64.09;101796.84;5060136;28;45707;-72
2023/05/02 04:41:38;;;;;;;;;15.75;14.50;;;;;14.28;64.32;101799.47;5076455;28;45456;-73
2023/05/02 04:44:04;;;;;;;;;14.25;14.00;;;;;14.32;64.08;101812.66;5073708;28;45367;-73
2023/05/02 04:46:30;;;;;;;;;15.25;13.00;;;;;14.36;63.89;101822.34;5078149;28;46144;-74
2023/05/02 04:48:55;;;;;;;;;17.00;15.50;;;;;14.35;63.39;101823.19;5054539;28;45453;-72
2023/05/02 04:51:21;;;;;;;;;17.00;14.00;;;;;14.33;63.79;101829.34;5068702;28;45463;-72
2023/05/02 04:53:48;;;;;;;;;17.50;14.75;;;;;14.34;63.84;101832.00;5055356;28;45588;-74
2023/05/02 04:56:13;;;;;;;;;17.00;14.25;;;;;14.36;63.89;101835.53;5056105;28;46975;-74
2023/05/02 04:58:39;;;;;;;;;19.50;13.00;;;;;14.24;64.05;101824.03;5079157;28;45366;-73
2023/05/02 05:01:05;;;;;;;;;20.25;16.25;;;;;14.16;64.27;101816.09;5076561;28;45809;-73
2023/05/02 05:03:32;;;;;;;;;28.25;20.75;;;;;14.26;64.56;101833.72;5057022;28;45494;-72
2023/05/02 05:05:57;;;;;;;;;25.00;17.00;;;;;14.21;64.17;101835.44;5079262;28;46844;-72
2023/05/02 05:08:23;;;;;;;;;14.33;13.00;;;;;14.21;64.33;101827.53;5057778;28;45850;-71
2023/05/02 05:10:49;;;;;;;;;10.50;9.75;;;;;14.31;64.44;101845.16;5074241;28;45576;-74
2023/05/02 05:13:15;;;;;;;;;14.25;13.50;;;;;14.24;63.72;101831.94;5079693;28;45280;-73
2023/05/02 05:15:43;;;;;;;;;22.33;16.67;;;;;14.38;63.79;101846.09;5057561;28;45485;-72
2023/05/02 05:18:09;;;;;;;;;21.25;15.25;;;;;14.17;63.96;101817.88;5079355;28;45410;-73
2023/05/02 05:20:37;;;;;;;;;22.25;17.25;;;;;14.27;64.34;101848.66;5059048;28;45497;-73
2023/05/02 05:23:03;;;;;;;;;23.75;15.50;;;;;14.28;64.59;101860.94;5075026;28;45493;-73
2023/05/02 05:25:28;;;;;;;;;18.25;14.50;;;;;14.39;63.86;101864.50;5075322;28;46198;-73
2023/05/02 05:27:55;;;;;;;;;17.75;14.00;;;;;14.48;63.93;101868.97;5075244;28;45313;-72
2023/05/02 05:30:21;;;;;;;;;16.75;14.25;;;;;14.54;63.35;101862.84;5077312;28;45504;-73
2023/05/02 05:32:47;;;;;;;;;19.50;14.75;;;;;14.60;63.84;101869.03;5075790;28;45469;-74
2023/05/02 05:35:12;;;;;;;;;21.50;15.75;;;;;14.70;63.32;101880.47;5051316;28;47306;-74
2023/05/02 05:37:38;;;;;;;;;19.25;17.00;;;;;14.61;63.38;101875.16;5060305;28;45453;-74
2023/05/02 05:40:08;;;;;;;;;17.50;16.00;;;;;14.67;63.11;101875.22;5072488;28;45477;-71
2023/05/02 05:42:33;;;;;;;;;20.50;16.25;;;;;14.77;63.42;101870.84;5067568;28;45532;-74
2023/05/02 05:44:59;;;;;;;;;18.00;15.00;;;;;14.83;62.97;101874.38;5072577;28;47887;-74
2023/05/02 05:47:25;;;;;;;;;20.00;14.67;;;;;14.84;62.35;101865.56;5047445;28;45991;-76
2023/05/02 05:49:54;;;;;;;;;20.50;15.50;;;;;14.99;61.99;101874.41;5073911;28;45527;-74
2023/05/02 05:52:20;;;;;;;;;20.25;16.00;;;;;15.16;61.99;101892.88;5072958;28;45512;-75
2023/05/02 05:54:46;;;;;;;;;15.00;14.67;;;;;15.06;61.64;101860.34;5076669;28;46044;-75
2023/05/02 05:57:12;;;;;;;;;19.25;16.25;;;;;15.25;61.42;101887.63;5058183;28;45458;-71
2023/05/02 05:59:37;;;;;;;;;14.75;14.25;;;;;15.33;61.73;101898.19;5057364;28;45574;-72
2023/05/02 06:02:03;;;;;;;;;20.67;14.33;;;;;15.41;61.31;101902.59;5074495;28;45461;-72
2023/05/02 06:04:29;;;;;;;;;18.25;15.25;;;;;15.56;60.67;101906.13;5071064;28;45746;-70
2023/05/02 06:06:55;;;;;;;;;18.67;15.33;;;;;15.58;60.27;101901.72;5072133;28;45893;-72
2023/05/02 06:09:20;;;;;;;;;17.50;16.25;;;;;15.67;60.09;101910.53;5052879;28;45357;-72
2023/05/02 06:11:46;;;;;;;;;25.75;20.50;;;;;15.69;60.32;101899.97;5072642;28;45359;-72
2023/05/02 06:14:11;;;;;;;;;19.25;16.75;;;;;15.86;59.88;101924.63;5071915;28;45593;-71
2023/05/02 06:16:37;;;;;;;;;18.00;14.33;;;;;15.87;59.23;101912.31;5052141;28;45435;-71
2023/05/02 06:19:02;;;;;;;;;28.50;23.75;;;;;15.76;59.18;101882.41;5073337;28;45489;-76
2023/05/02 06:21:28;;;;;;;;;23.75;19.50;;;;;16.05;59.04;101922.84;5072204;28;45398;-73
2023/05/02 06:23:53;;;;;;;;;19.00;18.00;;;;;16.04;58.94;101915.81;5076230;28;45928;-75
2023/05/02 06:26:19;;;;;;;;;22.33;18.00;;;;;16.19;58.30;101924.59;5070025;28;45366;-74
2023/05/02 06:28:44;;;;;;;;;21.67;17.67;;;;;16.08;58.44;101895.53;5073668;28;45427;-75
2023/05/02 06:31:10;;;;;;;;;25.00;21.33;;;;;16.23;58.15;101910.47;5071526;28;45412;-74
2023/05/02 06:33:35;;;;;;;;;19.33;17.00;;;;;16.33;58.14;101909.56;5073798;28;46547;-73
2023/05/02 06:36:01;;;;;;;;;21.00;19.33;;;;;16.41;57.75;101910.41;5071143;28;45469;-75
2023/05/02 06:38:27;;;;;;;;;26.33;22.00;;;;;16.53;57.65;101928.00;5052520;27;45437;-72
2023/05/02 06:40:53;;;;;;;;;27.00;18.00;;;;;16.50;57.49;101914.81;5071990;28;45465;-77
2023/05/02 06:43:19;;;;;;;;;23.67;19.00;;;;;16.63;57.17;101921.78;5071281;28;47513;-74
2023/05/02 06:45:45;;;;;;;;;23.33;21.33;;;;;16.75;56.91;101937.63;5070873;28;45458;-75
2023/05/02 06:48:14;;;;;;;;;23.67;18.67;;;;;16.73;56.83;101923.53;5050864;28;45877;-74
2023/05/02 06:50:40;;;;;;;;;21.67;19.00;;;;;16.88;56.62;101941.13;5055667;28;45901;-73
2023/05/02 06:53:06;;;;;;;;;28.00;22.33;;;;;16.88;56.57;101927.88;5051914;28;45569;-73
2023/05/02 06:55:32;;;;;;;;;19.33;17.33;;;;;16.95;56.16;101928.75;5072531;28;46741;-75
2023/05/02 06:57:58;;;;;;;;;25.33;20.67;;;;;17.09;55.83;101937.47;5057182;28;45446;-74
2023/05/02 07:00:24;;;;;;;;;22.00;20.67;;;;;17.15;55.71;101941.84;5071791;28;45510;-73
2023/05/02 07:02:50;;;;;;;;;31.00;25.67;;;;;17.20;55.71;101933.88;5071536;28;45555;-74
2023/05/02 07:05:16;;;;;;;;;25.67;20.00;;;;;17.22;55.38;101932.09;5074743;28;45416;-71
2023/05/02 07:07:44;;;;;;;;;29.33;22.33;;;;;17.32;55.22;101937.34;5070653;28;45584;-73
2023/05/02 07:10:11;;;;;;;;;16.00;12.00;;;;;17.28;55.14;101932.94;5074437;28;45556;-72
2023/05/02 07:12:38;;;;;;;;;26.67;22.33;;;;;17.34;54.99;101942.63;5052810;28;46397;-73
2023/05/02 07:15:07;;;;;;;;;27.33;22.67;;;;;17.46;54.99;101946.94;5056703;28;45381;-74
2023/05/02 07:17:33;;;;;;;;;23.00;22.00;;;;;17.43;54.73;101944.31;5074082;28;45493;-74
2023/05/02 07:19:59;;;;;;;;;23.67;18.67;;;;;17.47;54.82;101939.00;5054253;28;45436;-73
2023/05/02 07:22:31;;;;;;;;;22.00;19.67;;;;;17.49;54.64;101928.41;5079241;28;46221;-73
2023/05/02 07:24:58;;;;;;;;;24.67;21.67;;;;;17.62;54.22;101945.94;5070369;27;45426;-76
2023/05/02 07:27:23;;;;;;;;;33.00;27.00;;;;;17.49;54.53;101933.69;5071434;28;45396;-71
2023/05/02 07:29:50;;;;;;;;;24.67;18.67;;;;;17.54;54.45;101939.84;5071997;28;45487;-71
2023/05/02 07:32:16;;;;;;;;;29.33;24.33;;;;;17.46;54.68;101933.69;5058512;28;46972;-71
2023/05/02 07:34:42;;;;;;;;;24.67;18.67;;;;;17.44;54.61;101928.44;5073795;28;45434;-72
2023/05/02 07:37:10;;;;;;;;;22.33;19.33;;;;;17.56;54.28;101938.06;5077843;28;45528;-72
2023/05/02 07:39:37;;;;;;;;;31.33;22.33;;;;;17.64;54.26;101948.59;5073460;28;45532;-75
2023/05/02 07:42:03;;;;;;;;;35.25;28.75;;;;;17.58;54.07;101950.41;5067887;28;46184;-69
2023/05/02 07:44:29;;;;;;;;;32.25;31.25;;;;;17.48;54.27;101950.47;5071272;28;45606;-75
2023/05/02 07:46:55;;;;;;;;;28.00;25.33;;;;;17.30;54.67;101948.84;5048874;28;45850;-77
2023/05/02 07:49:20;;;;;;;;;24.00;21.67;;;;;17.20;55.02;101950.63;5073929;28;46016;-76
2023/05/02 07:51:46;;;;;;;;;21.33;18.00;;;;;17.38;54.74;101963.75;5073322;28;45710;-75
2023/05/02 07:54:15;;;;;;;;;23.67;18.00;;;;;17.41;54.51;101949.63;5077851;28;45602;-75
2023/05/02 07:56:41;;;;;;;;;21.67;19.67;;;;;17.59;54.37;101964.50;5056247;28;45540;-73
2023/05/02 07:59:08;;;;;;;;;19.67;18.67;;;;;17.63;54.09;101953.00;5078738;28;45479;-74
2023/05/02 08:01:34;;;;;;;;;20.33;18.00;;;;;17.82;54.48;101966.13;5057928;28;46393;-69
2023/05/02 08:04:00;;;;;;;;;24.00;19.33;;;;;17.90;53.68;101970.47;5074986;28;46178;-76
2023/05/02 08:06:25;;;;;;;;;18.33;15.00;;;;;17.98;53.81;101971.28;5076169;28;46164;-75
2023/05/02 08:08:51;;;;;;;;;25.00;23.00;;;;;18.01;53.00;101959.78;5054463;28;45516;-77
2023/05/02 08:11:16;;;;;;;;;23.67;21.33;;;;;17.75;53.34;101925.53;5074110;28;46978;-77
2023/05/02 08:13:42;;;;;;;;;32.00;25.00;;;;;17.99;53.18;101966.88;5054839;28;45522;-77
2023/05/02 08:16:08;;;;;;;;;23.67;21.67;;;;;18.14;52.86;101979.09;5075362;28;45543;-78
2023/05/02 08:18:33;;;;;;;;;24.00;17.67;;;;;18.18;52.71;101967.56;5058272;28;45400;-77
2023/05/02 08:20:59;;;;;;;;;18.33;17.33;;;;;18.23;52.77;101974.56;5078578;28;45973;-76
2023/05/02 08:23:24;;;;;;;;;18.00;17.00;;;;;18.36;52.51;101990.34;5062197;28;45738;-75
2023/05/02 08:25:50;;;;;;;;;29.67;27.33;;;;;18.32;51.74;101970.06;5076638;28;45271;-74
2023/05/02 08:28:16;;;;;;;;;22.00;17.00;;;;;18.34;52.38;101974.47;5076496;28;45338;-77
2023/05/02 08:30:41;;;;;;;;;22.33;14.67;;;;;18.44;52.00;101973.47;5078988;28;46112;-78
2023/05/02 08:33:07;;;;;;;;;20.33;18.67;;;;;18.52;52.05;101977.81;5076024;27;45465;-77
2023/05/02 08:35:33;;;;;;;;;23.00;16.00;;;;;18.49;51.89;101973.44;5076236;28;45311;-75
2023/05/02 08:37:59;;;;;;;;;26.67;23.00;;;;;18.61;51.96;101985.69;5076133;28;45931;-76
2023/05/02 08:40:25;;;;;;;;;30.00;21.33;;;;;18.52;52.15;101984.00;5053702;28;46047;-76
2023/05/02 08:42:51;;;;;;;;;30.33;27.33;;;;;18.39;51.67;101979.75;5069030;28;45496;-74
2023/05/02 08:45:18;;;;;;;;;34.67;23.00;;;;;18.32;52.07;101989.53;5075413;28;45492;-77
2023/05/02 08:47:45;;;;;;;;;21.67;16.33;;;;;18.36;52.83;101990.34;5055271;28;45485;-78
2023/05/02 08:50:11;;;;;;;;;17.67;15.00;;;;;18.46;53.45;101988.47;5074845;28;46558;-79
2023/05/02 08:52:37;;;;;;;;;3.00;2.00;;;;;18.46;52.46;101984.09;5055443;28;45390;-80
2023/05/02 08:55:05;;;;;;;;;19.67;14.33;;;;;18.49;52.09;101973.44;5077781;28;45181;-74
2023/05/02 08:57:31;;;;;;;;;25.33;20.33;;;;;18.60;51.95;101987.47;5067185;28;45593;-77
2023/05/02 08:59:57;;;;;;;;;27.33;21.33;;;;;18.53;50.97;102003.44;5084772;28;45447;-76
2023/05/02 09:02:38;;;;;;;;;21.33;15.33;;;;;18.38;51.43;102013.31;5079842;28;45570;-78
2023/05/02 09:05:06;;;;;;;;;15.33;13.67;;;;;18.36;51.80;101996.53;5084507;28;45613;-77
2023/05/02 09:07:47;;;;;;;;;31.33;27.00;;;;;18.23;51.60;101990.50;5068956;28;45562;-80
2023/05/02 09:10:14;;;;;;;;;32.67;27.67;;;;;18.23;51.62;102008.19;5078911;28;45621;-78
2023/05/02 09:12:40;;;;;;;;;27.33;22.33;;;;;18.16;52.38;102010.00;5080444;28;45798;-77
2023/05/02 09:15:15;;;;;;;;;36.00;29.50;;;;;18.13;52.10;102004.75;5087142;28;45469;-76
2023/05/02 09:17:45;;;;;;;;;36.00;31.50;;;;;18.20;52.41;102011.75;5049511;28;45594;-78
2023/05/02 09:20:13;;;;;;;;;38.75;27.50;;;;;18.21;52.64;102009.97;5047062;28;45422;-75
2023/05/02 09:22:46;;;;;;;;;28.00;26.00;;;;;18.40;52.71;102022.16;5054585;28;45333;-75
2023/05/02 09:25:12;;;;;;;;;36.50;31.75;;;;;18.63;52.57;102037.84;5054174;28;45363;-74
2023/05/02 09:27:54;;;;;;;;;42.75;35.25;;;;;18.69;52.23;102033.34;5073974;28;45296;-76
2023/05/02 09:30:25;;;;;;;;;37.50;32.25;;;;;18.72;51.96;102035.97;5053749;28;45492;-76
2023/05/02 09:32:53;;;;;;;;;43.25;34.25;;;;;18.78;51.80;102043.91;5053494;28;45932;-75
2023/05/02 09:35:28;;;;;;;;;45.00;34.00;;;;;18.56;51.97;102043.22;5057683;28;45403;-77
2023/05/02 09:37:57;;;;;;;;;35.33;30.00;;;;;18.49;52.31;102039.75;5060243;28;45569;-76
2023/05/02 09:40:24;;;;;;;;;40.25;31.25;;;;;18.42;52.00;102059.28;5060767;28;47686;-74
2023/05/02 09:42:53;;;;;;;;;36.25;31.25;;;;;18.16;53.12;102064.81;5054408;28;45504;-74
2023/05/02 09:45:24;;;;;;;;;25.00;23.33;;;;;18.18;52.74;102055.94;5044103;28;45497;-77
2023/05/02 09:47:52;;;;;;;;;23.33;22.00;;;;;18.34;52.79;102063.75;5057356;28;45564;-75
2023/05/02 09:50:35;;;;;;;;;28.33;26.33;;;;;18.40;52.73;102064.59;5075993;28;46042;-76
2023/05/02 09:53:05;;;;;;;;;33.00;25.67;;;;;18.51;52.63;102064.50;5076300;28;45703;-75
2023/05/02 09:55:31;;;;;;;;;27.67;25.67;;;;;18.53;52.67;102064.47;5084702;28;46447;-77
2023/05/02 09:57:57;;;;;;;;;27.33;25.33;;;;;18.26;52.29;102047.91;5056470;28;45496;-77
2023/05/02 10:00:37;;;;;;;;;32.33;27.00;;;;;18.09;52.57;102057.81;5077505;28;45814;-78
2023/05/02 10:03:06;;;;;;;;;30.00;27.67;;;;;17.89;53.16;102042.03;5059919;28;45460;-78
2023/05/02 10:05:36;;;;;;;;;25.33;23.00;;;;;17.83;53.53;102074.78;5073646;28;45329;-77
2023/05/02 10:08:04;;;;;;;;;29.33;24.00;;;;;17.59;53.62;102068.72;5047134;28;45466;-76
2023/05/02 10:10:34;;;;;;;;;24.67;22.33;;;;;17.52;54.18;102048.44;5075811;28;45322;-73
2023/05/02 10:13:02;;;;;;;;;26.00;24.33;;;;;17.79;54.36;102062.41;5055133;28;45923;-78
2023/05/02 10:15:30;;;;;;;;;28.00;24.67;;;;;17.80;53.34;102053.56;5076044;28;45375;-78
2023/05/02 10:18:01;;;;;;;;;19.67;18.33;;;;;17.84;53.76;102059.75;5067579;28;45486;-78
2023/05/02 10:20:33;;;;;;;;;24.33;21.33;;;;;18.00;53.29;102059.63;5065006;28;47098;-77
2023/05/02 10:23:02;;;;;;;;;27.00;24.67;;;;;18.06;53.28;102061.38;5075363;28;45401;-77
2023/05/02 10:25:29;;;;;;;;;26.00;18.00;;;;;18.04;53.22;102057.84;5055854;28;45458;-79
2023/05/02 10:27:59;;;;;;;;;15.67;14.00;;;;;18.11;53.11;102038.34;5057632;28;45347;-77
2023/05/02 10:30:26;;;;;;;;;13.33;13.00;;;;;18.43;52.70;102050.41;5059756;28;46907;-77
2023/05/02 10:32:53;;;;;;;;;13.00;13.00;;;;;18.63;52.38;102052.88;5056275;28;45808;-73
2023/05/02 10:35:20;;;;;;;;;12.67;10.00;;;;;18.78;52.47;102043.91;5059349;28;45399;-76
2023/05/02 10:37:48;;;;;;;;;17.33;13.33;;;;;19.02;52.08;102040.94;5069283;28;45517;-77
2023/05/02 10:42:50;;;;;;;;;27.33;20.33;;;;;18.88;50.33;102045.53;5095068;27;45388;-74
2023/05/02 10:45:36;;;;;;;;;24.67;19.67;;;;;18.78;50.90;102060.69;5064238;28;45635;-76
2023/05/02 10:48:22;;;;;;;;;22.67;22.33;;;;;18.62;50.89;102048.44;5076000;28;45340;-77
2023/05/02 10:50:56;;;;;;;;;18.67;16.00;;;;;18.69;51.20;102054.56;5078925;27;45890;-78
2023/05/02 10:53:33;;;;;;;;;24.00;19.67;;;;;18.59;51.43;102038.75;5077221;27;46334;-78
2023/05/02 10:56:14;;;;;;;;;24.67;22.33;;;;;18.80;51.05;102058.91;5076263;28;45479;-73
2023/05/02 10:58:42;;;;;;;;;27.33;22.33;;;;;18.60;51.00;102064.41;5073479;28;45425;-78
2023/05/02 11:01:27;;;;;;;;;18.33;17.00;;;;;18.57;50.60;102059.09;5068777;28;45385;-74
2023/05/02 11:03:57;;;;;;;;;22.00;19.67;;;;;18.48;51.01;102056.53;5057184;28;46925;-77
2023/05/02 11:06:27;;;;;;;;;21.33;20.67;;;;;18.58;51.15;102060.88;5070076;28;45473;-79
2023/05/02 11:09:17;;;;;;;;;18.67;14.33;;;;;18.61;51.20;102039.63;5067974;28;45297;-78
2023/05/02 11:11:53;;;;;;;;;25.33;23.67;;;;;19.00;50.91;102045.38;5086928;27;45437;-76
2023/05/02 11:14:24;;;;;;;;;28.00;23.67;;;;;19.11;50.29;102057.69;5068641;28;45351;-78
2023/05/02 11:17:08;;;;;;;;;23.00;19.33;;;;;19.09;50.90;102051.50;5071597;28;45563;-74
2023/05/02 11:19:42;;;;;;;;;16.33;14.00;;;;;19.35;50.80;102049.38;5071306;28;45456;-74
2023/05/02 11:22:16;;;;;;;;;13.00;12.33;;;;;19.68;50.82;102052.50;5068472;28;45703;-71